This is the latest recevied weather packets stored in our database for station/object KF4ERV-4. If no packets are shown the sender has not sent any weather packets the latest 10 day(s).
| Time | Temp. | Humidity | Pressure | Rain* | Wind** | Luminosity | Snow |
|---|---|---|---|---|---|---|---|
| 1777900195 | 11.67° C | 10% | 1012 hPa | 0.51 mm | - | - | - |
| 1777899988 | 11.67° C | 9% | 1012 hPa | 0.51 mm | - | - | - |
| 1777899889 | 11.67° C | 9% | 1012 hPa | 0.51 mm | - | - | - |
| 1777899708 | 11.67° C | 12% | 1012 hPa | 0.76 mm | - | - | - |
| 1777899590 | 11.67° C | 12% | 1012 hPa | 0.76 mm | - | - | - |
| 1777899407 | 11.67° C | 15% | 1012 hPa | 1.02 mm | - | - | - |
| 1777899293 | 11.67° C | 15% | 1012 hPa | 1.02 mm | - | - | - |
| 1777899117 | 11.67° C | 13% | 1012.7 hPa | 1.27 mm | - | - | - |
| 1777899073 | 11.67° C | 23% | 1013 hPa | 1.78 mm | - | - | - |
| 1777898987 | 12.22° C | 28% | 1012.5 hPa | 1.78 mm | - | - | - |
| 1777898986 | 11.67° C | 13% | 1012.7 hPa | 1.27 mm | - | - | - |
| 1777898827 | 11.67° C | 16% | 1012.9 hPa | 1.52 mm | - | - | - |
| 1777898688 | 11.67° C | 16% | 1012.9 hPa | 1.52 mm | - | - | - |
| 1777898537 | 11.67° C | 23% | 1013 hPa | 1.78 mm | - | - | - |
| 1777898392 | 11.67° C | 23% | 1013 hPa | 1.78 mm | - | - | - |
| 1777898252 | 12.22° C | 28% | 1012.5 hPa | 1.78 mm | - | - | - |
| 1777898221 | 12.22° C | 28% | 1012.5 hPa | 1.78 mm | - | - | - |
| 1777898095 | 12.22° C | 28% | 1012.5 hPa | 1.78 mm | - | - | - |
| 1777897957 | 12.22° C | 26% | 1012 hPa | 1.78 mm | - | - | - |
| 1777897790 | 12.22° C | 26% | 1012 hPa | 1.78 mm | - | - | - |
| 1777897668 | 12.22° C | 24% | 1012 hPa | 1.52 mm | - | - | - |
| 1777897489 | 12.22° C | 24% | 1012 hPa | 1.52 mm | - | - | - |
| 1777897403 | 12.22° C | 20% | 1012 hPa | 1.27 mm | - | - | - |
| 1777897379 | 12.22° C | 24% | 1012 hPa | 1.27 mm | - | - | - |
| 1777897192 | 12.22° C | 24% | 1012 hPa | 1.27 mm | - | - | - |
* Rain latest hour (hover to see other rain measurements)
** Current wind speed in m/s (hover to see current wind gust speed)